Weather observations for the past three days for
Crown Point International Airport
Imperial (Metric)
Date Time (ast) Wind (mph) Vis. (mi.) Weather Sky Cond. Temperature (ºF) Relative Humidity Wind Chill (°F) Heat Index (°F) Pressure Precipitation (in)
Air Dwpt 6 hour altimeter (in) sea level (mb) 1 hr 3 hr 6 hr
Max. Min.
05 23:00 NE 3 0.00 A Few Clouds FEW018 82.4 78.8 89% 92 0 0.0
05 22:00 E 7 0.00 A Few Clouds FEW018 84.2 78.8 84% 96 0 0.0
05 21:00 E 7 0.00 A Few Clouds FEW018 84.2 78.8 84% 96 0 0.0
05 20:00 E 7 0.00 A Few Clouds FEW018 84.2 78.8 84% 96 0 0.0
05 19:00 E 7 0.00 A Few Clouds FEW018 84.2 78.8 84% 96 0 0.0
05 18:00 SE 6 0.00 A Few Clouds FEW018 86 78.8 79% 99 0 0.0
05 17:00 SE 8 0.00 A Few Clouds FEW018 86 78.8 79% 99 0 0.0
05 16:00 SE 8 0.00 A Few Clouds FEW018 87.8 80.6 79% 105 0 0.0
05 13:00 SE 7 0.00 A Few Clouds FEW018 87.8 80.6 79% 105 0 0.0
05 12:00 SE 9 0.00 A Few Clouds FEW018 89.6 80.6 75% 108 0 0.0
05 11:00 SE 8 0.00 A Few Clouds FEW018 87.8 80.6 79% 105 0 0.0
05 10:00 SE 8 0.00 A Few Clouds FEW018 87.8 78.8 75% 102 0 0.0
05 09:00 SE 8 0.00 A Few Clouds FEW018 87.8 80.6 79% 105 0 0.0
05 08:00 SE 7 0.00 A Few Clouds FEW018 86 78.8 79% 99 0 0.0
05 07:00 E 10 0.00 A Few Clouds FEW018 84.2 78.8 84% 96 0 0.0
05 06:00 E 8 0.00 A Few Clouds FEW016 82.4 78.8 89% 92 0 0.0
05 05:00 E 8 0.00 A Few Clouds FEW016 82.4 77 84% 91 0 0.0
05 03:00 E 9 0.00 A Few Clouds FEW016 82.4 77 84% 91 0 0.0
05 02:00 E 10 0.00 A Few Clouds FEW016 82.4 77 84% 91 0 0.0
05 01:00 E 12 0.00 A Few Clouds FEW016 82.4 77 84% 91 0 0.0
05 00:00 E 10 0.00 A Few Clouds FEW016 84.2 78.8 84% 96 0 0.0
04 23:00 E 10 0.00 A Few Clouds FEW016 84.2 78.8 84% 96 0 0.0
04 22:00 E 10 0.00 A Few Clouds FEW016 84.2 78.8 84% 96 0 0.0
04 21:00 E 12 0.00 A Few Clouds FEW018 84.2 78.8 84% 96 0 0.0
04 19:00 E 8 0.00 A Few Clouds FEW018 82.4 78.8 89% 92 0 0.0
04 18:00 E 8 0.00 A Few Clouds FEW018 84.2 78.8 84% 96 0 0.0
04 17:00 E 7 0.00 A Few Clouds FEW018 86 78.8 79% 99 0 0.0
04 16:00 SE 7 0.00 A Few Clouds FEW018 87.8 78.8 75% 102 0 0.0
04 15:00 SE 7 0.00 A Few Clouds FEW020 87.8 0 0% 0 0.0
04 14:00 SE 7 0.00 A Few Clouds FEW020 87.8 78.8 75% 102 0 0.0
04 13:00 SE 7 0.00 A Few Clouds FEW020 87.8 80.6 79% 105 0 0.0
04 12:00 SE 9 0.00 A Few Clouds FEW018 87.8 80.6 79% 105 0 0.0
04 11:00 SE 9 0.00 A Few Clouds FEW018 87.8 80.6 79% 105 0 0.0
04 10:00 E 8 0.00 Showers in Vicinity FEW018 87.8 80.6 79% 105 0 0.0
04 09:00 E 8 0.00 Light Showers Rain Showers in Vicinity FEW016 84.2 80.6 89% 98 0 0.0
04 08:00 E 9 0.00 Showers in Vicinity FEW016 84.2 80.6 89% 98 0 0.0
04 07:00 E 5 0.00 Showers in Vicinity SCT015 82.4 78.8 89% 92 0 0.0
04 06:00 E 5 0.00 Showers in Vicinity SCT015 80.6 77 89% 87 0 0.0
04 05:00 NE 5 0.00 Showers in Vicinity SCT015 80.6 77 89% 87 0 0.0
04 04:00 NE 3 0.00 Partly Cloudy SCT015 80.6 77 89% 87 0 0.0
04 03:00 E 3 0.00 A Few Clouds FEW015 80.6 77 89% 87 0 0.0
04 02:00 E 3 0.00 A Few Clouds FEW015 80.6 78.8 94% 88 0 0.0
04 01:00 NE 5 0.00 A Few Clouds FEW015 80.6 77 89% 87 0 0.0
04 00:00 Calm 0.00 Partly Cloudy SCT015 80.6 77 89% 87 0 0.0
03 22:00 NE 3 0.00 A Few Clouds FEW016 82.4 77 84% 91 0 0.0
03 21:00 E 7 0.00 A Few Clouds FEW016 82.4 77 84% 91 0 0.0
03 20:00 E 8 0.00 A Few Clouds FEW016 82.4 75.2 79% 89 0 0.0
03 19:00 E 9 0.00 A Few Clouds FEW018 84.2 77 79% 94 0 0.0
03 18:00 E 12 0.00 A Few Clouds FEW020 84.2 77 79% 94 0 0.0
03 17:00 E 12 0.00 A Few Clouds FEW020 87.8 78.8 75% 102 0 0.0
03 16:00 SE 6 0.00 A Few Clouds FEW022 86 77 75% 97 0 0.0
03 15:00 SE 7 0.00 A Few Clouds FEW022 87.8 78.8 75% 102 0 0.0
03 14:00 SE 7 0.00 A Few Clouds FEW022 89.6 77 67% 103 0 0.0
03 13:00 E 8 0.00 A Few Clouds FEW022 87.8 78.8 75% 102 0 0.0
03 12:00 E 8 0.00 A Few Clouds FEW022 87.8 78.8 75% 102 0 0.0
03 11:00 E 10 0.00 A Few Clouds FEW020 87.8 77 70% 100 0 0.0
03 10:00 E 9 0.00 A Few Clouds FEW020 87.8 77 70% 100 0 0.0
03 09:00 E 9 0.00 A Few Clouds FEW020 86 77 75% 97 0 0.0
03 08:00 E 6 0.00 Showers Rain FEW018 86 77 75% 97 0 0.0
03 07:00 NE 3 0.00 Showers Rain FEW018 82.4 77 84% 91 0 0.0
03 06:00 E 5 0.00 A Few Clouds FEW018 80.6 75.2 84% 86 0 0.0
03 05:00 NE 6 0.00 A Few Clouds FEW018 80.6 75.2 84% 86 0 0.0
03 04:00 NE 5 0.00 A Few Clouds FEW018 78.8 75.2 89% 82 0 0.0
03 03:00 NE 5 0.00 A Few Clouds FEW018 78.8 73.4 84% 82 0 0.0
03 02:00 NE 3 0.00 A Few Clouds FEW018 78.8 75.2 89% 82 0 0.0
03 01:00 NE 3 0.00 A Few Clouds FEW018 78.8 75.2 89% 82 0 0.0
03 00:00 E 6 0.00 A Few Clouds FEW018 80.6 75.2 84% 86 0 0.0
Date Time (ast) Wind (mph) Vis. (mi.) Weather Sky Cond. Air Dwpt Max. Min. Relative Humidity Wind Chill (°F) Heat Index (°F) altimeter (in) sea level (mb) 1 hr 3 hr 6 hr
6 hour
Temperature (ºF) Pressure Precipitation (in)